sensor_id;sensor_type;location;lat;lon;timestamp;P1;durP1;ratioP1;P2;durP2;ratioP2
18322;SDS011;9287;49.456;11.064;2023-02-03T00:02:26;4.33;;;2.23;;
18322;SDS011;9287;49.456;11.064;2023-02-03T00:04:54;2.87;;;2.20;;
18322;SDS011;9287;49.456;11.064;2023-02-03T00:07:22;4.63;;;2.50;;
18322;SDS011;9287;49.456;11.064;2023-02-03T00:09:49;3.43;;;2.20;;
18322;SDS011;9287;49.456;11.064;2023-02-03T00:12:18;5.00;;;2.67;;
18322;SDS011;9287;49.456;11.064;2023-02-03T00:14:46;4.30;;;2.33;;
18322;SDS011;9287;49.456;11.064;2023-02-03T00:17:14;3.37;;;2.23;;
18322;SDS011;9287;49.456;11.064;2023-02-03T00:19:42;4.47;;;2.87;;
18322;SDS011;9287;49.456;11.064;2023-02-03T00:22:09;5.93;;;2.70;;
18322;SDS011;9287;49.456;11.064;2023-02-03T00:24:37;3.70;;;2.53;;
18322;SDS011;9287;49.456;11.064;2023-02-03T00:27:05;4.97;;;3.23;;
18322;SDS011;9287;49.456;11.064;2023-02-03T00:29:34;4.03;;;2.70;;
18322;SDS011;9287;49.456;11.064;2023-02-03T00:32:02;5.00;;;2.60;;
18322;SDS011;9287;49.456;11.064;2023-02-03T00:34:30;4.43;;;2.83;;
18322;SDS011;9287;49.456;11.064;2023-02-03T00:36:58;3.27;;;2.80;;
18322;SDS011;9287;49.456;11.064;2023-02-03T00:39:25;4.60;;;2.97;;
18322;SDS011;9287;49.456;11.064;2023-02-03T00:41:53;6.30;;;2.97;;
18322;SDS011;9287;49.456;11.064;2023-02-03T00:44:21;2.80;;;2.60;;
18322;SDS011;9287;49.456;11.064;2023-02-03T00:46:50;5.03;;;2.83;;
18322;SDS011;9287;49.456;11.064;2023-02-03T00:49:17;3.00;;;2.53;;
18322;SDS011;9287;49.456;11.064;2023-02-03T00:51:45;5.57;;;2.70;;
18322;SDS011;9287;49.456;11.064;2023-02-03T00:54:13;4.60;;;3.10;;
18322;SDS011;9287;49.456;11.064;2023-02-03T00:56:40;3.80;;;3.03;;
18322;SDS011;9287;49.456;11.064;2023-02-03T00:59:08;5.70;;;3.60;;
18322;SDS011;9287;49.456;11.064;2023-02-03T01:01:36;4.33;;;3.00;;
18322;SDS011;9287;49.456;11.064;2023-02-03T01:04:05;3.63;;;3.20;;
18322;SDS011;9287;49.456;11.064;2023-02-03T01:06:33;3.80;;;3.43;;
18322;SDS011;9287;49.456;11.064;2023-02-03T01:09:01;6.93;;;3.57;;
18322;SDS011;9287;49.456;11.064;2023-02-03T01:11:29;6.23;;;3.13;;
18322;SDS011;9287;49.456;11.064;2023-02-03T01:13:58;4.67;;;3.20;;
18322;SDS011;9287;49.456;11.064;2023-02-03T01:16:27;5.80;;;3.93;;
18322;SDS011;9287;49.456;11.064;2023-02-03T01:18:56;5.70;;;4.47;;
18322;SDS011;9287;49.456;11.064;2023-02-03T01:21:26;4.47;;;4.07;;
18322;SDS011;9287;49.456;11.064;2023-02-03T01:23:54;7.93;;;4.13;;
18322;SDS011;9287;49.456;11.064;2023-02-03T01:26:22;8.30;;;4.30;;
18322;SDS011;9287;49.456;11.064;2023-02-03T01:28:50;7.27;;;3.90;;
18322;SDS011;9287;49.456;11.064;2023-02-03T01:31:19;7.00;;;4.87;;
18322;SDS011;9287;49.456;11.064;2023-02-03T01:33:49;8.57;;;4.90;;
18322;SDS011;9287;49.456;11.064;2023-02-03T01:36:20;5.40;;;4.70;;
18322;SDS011;9287;49.456;11.064;2023-02-03T01:38:50;5.27;;;4.33;;
18322;SDS011;9287;49.456;11.064;2023-02-03T01:41:19;6.10;;;5.10;;
18322;SDS011;9287;49.456;11.064;2023-02-03T01:43:48;5.20;;;4.70;;
18322;SDS011;9287;49.456;11.064;2023-02-03T01:46:21;6.63;;;5.67;;
18322;SDS011;9287;49.456;11.064;2023-02-03T01:48:58;12.10;;;5.40;;
18322;SDS011;9287;49.456;11.064;2023-02-03T01:51:30;10.17;;;5.73;;
18322;SDS011;9287;49.456;11.064;2023-02-03T01:54:00;9.23;;;5.53;;
18322;SDS011;9287;49.456;11.064;2023-02-03T01:56:29;8.83;;;5.97;;
18322;SDS011;9287;49.456;11.064;2023-02-03T01:59:01;9.87;;;6.60;;
18322;SDS011;9287;49.456;11.064;2023-02-03T02:01:29;8.80;;;5.97;;
18322;SDS011;9287;49.456;11.064;2023-02-03T02:04:00;11.23;;;6.67;;
18322;SDS011;9287;49.456;11.064;2023-02-03T02:06:29;9.70;;;5.80;;
18322;SDS011;9287;49.456;11.064;2023-02-03T02:08:57;8.17;;;6.00;;
18322;SDS011;9287;49.456;11.064;2023-02-03T02:11:27;9.33;;;5.57;;
18322;SDS011;9287;49.456;11.064;2023-02-03T02:13:56;8.20;;;5.23;;
18322;SDS011;9287;49.456;11.064;2023-02-03T02:16:28;8.93;;;5.93;;
18322;SDS011;9287;49.456;11.064;2023-02-03T02:19:18;8.93;;;5.83;;
18322;SDS011;9287;49.456;11.064;2023-02-03T02:22:05;11.57;;;6.20;;
18322;SDS011;9287;49.456;11.064;2023-02-03T02:27:46;9.60;;;5.77;;
18322;SDS011;9287;49.456;11.064;2023-02-03T02:30:38;7.83;;;5.43;;
18322;SDS011;9287;49.456;11.064;2023-02-03T02:33:19;9.37;;;5.30;;
18322;SDS011;9287;49.456;11.064;2023-02-03T02:36:01;7.93;;;5.23;;
18322;SDS011;9287;49.456;11.064;2023-02-03T02:38:37;6.97;;;4.80;;
18322;SDS011;9287;49.456;11.064;2023-02-03T02:41:16;6.83;;;4.77;;
18322;SDS011;9287;49.456;11.064;2023-02-03T02:43:50;6.57;;;4.60;;
18322;SDS011;9287;49.456;11.064;2023-02-03T02:46:27;7.13;;;5.07;;
18322;SDS011;9287;49.456;11.064;2023-02-03T02:49:00;10.60;;;4.70;;
18322;SDS011;9287;49.456;11.064;2023-02-03T02:51:31;8.07;;;5.10;;
18322;SDS011;9287;49.456;11.064;2023-02-03T02:54:01;5.70;;;4.53;;
18322;SDS011;9287;49.456;11.064;2023-02-03T02:56:33;7.60;;;4.77;;
18322;SDS011;9287;49.456;11.064;2023-02-03T02:59:02;9.23;;;5.53;;
18322;SDS011;9287;49.456;11.064;2023-02-03T03:01:31;4.50;;;4.10;;
18322;SDS011;9287;49.456;11.064;2023-02-03T03:04:01;11.53;;;4.93;;
18322;SDS011;9287;49.456;11.064;2023-02-03T03:06:33;6.93;;;3.90;;
18322;SDS011;9287;49.456;11.064;2023-02-03T03:09:05;5.43;;;4.20;;
18322;SDS011;9287;49.456;11.064;2023-02-03T03:11:38;6.13;;;4.20;;
18322;SDS011;9287;49.456;11.064;2023-02-03T03:14:09;5.90;;;4.40;;
18322;SDS011;9287;49.456;11.064;2023-02-03T03:16:41;8.33;;;4.53;;
18322;SDS011;9287;49.456;11.064;2023-02-03T03:19:16;6.33;;;4.47;;
18322;SDS011;9287;49.456;11.064;2023-02-03T03:21:48;6.67;;;4.33;;
18322;SDS011;9287;49.456;11.064;2023-02-03T03:24:19;6.30;;;5.20;;
18322;SDS011;9287;49.456;11.064;2023-02-03T03:26:52;7.00;;;3.73;;
18322;SDS011;9287;49.456;11.064;2023-02-03T03:29:24;9.40;;;3.97;;
18322;SDS011;9287;49.456;11.064;2023-02-03T03:31:56;5.13;;;3.53;;
18322;SDS011;9287;49.456;11.064;2023-02-03T03:34:26;4.20;;;3.43;;
18322;SDS011;9287;49.456;11.064;2023-02-03T03:36:56;7.07;;;3.63;;
18322;SDS011;9287;49.456;11.064;2023-02-03T03:39:31;3.70;;;2.77;;
18322;SDS011;9287;49.456;11.064;2023-02-03T03:42:04;2.83;;;2.40;;
18322;SDS011;9287;49.456;11.064;2023-02-03T03:44:36;2.87;;;2.63;;
18322;SDS011;9287;49.456;11.064;2023-02-03T03:47:09;4.10;;;2.90;;
18322;SDS011;9287;49.456;11.064;2023-02-03T03:49:42;4.43;;;2.70;;
18322;SDS011;9287;49.456;11.064;2023-02-03T03:52:13;5.67;;;3.20;;
18322;SDS011;9287;49.456;11.064;2023-02-03T03:54:45;4.60;;;3.07;;
18322;SDS011;9287;49.456;11.064;2023-02-03T03:57:15;3.17;;;2.43;;
18322;SDS011;9287;49.456;11.064;2023-02-03T03:59:46;4.47;;;2.80;;
18322;SDS011;9287;49.456;11.064;2023-02-03T04:02:15;3.63;;;2.70;;
18322;SDS011;9287;49.456;11.064;2023-02-03T04:04:47;3.23;;;2.83;;
18322;SDS011;9287;49.456;11.064;2023-02-03T04:07:16;5.40;;;2.50;;
18322;SDS011;9287;49.456;11.064;2023-02-03T04:09:45;7.73;;;2.67;;
18322;SDS011;9287;49.456;11.064;2023-02-03T04:12:15;2.73;;;2.50;;
18322;SDS011;9287;49.456;11.064;2023-02-03T04:14:49;3.20;;;2.43;;
18322;SDS011;9287;49.456;11.064;2023-02-03T04:17:17;2.93;;;2.67;;
18322;SDS011;9287;49.456;11.064;2023-02-03T04:19:45;3.30;;;3.03;;
18322;SDS011;9287;49.456;11.064;2023-02-03T04:22:15;2.77;;;2.47;;
18322;SDS011;9287;49.456;11.064;2023-02-03T04:24:42;3.83;;;2.40;;
18322;SDS011;9287;49.456;11.064;2023-02-03T04:27:10;3.43;;;2.30;;
18322;SDS011;9287;49.456;11.064;2023-02-03T04:29:38;3.83;;;3.10;;
18322;SDS011;9287;49.456;11.064;2023-02-03T04:32:05;5.13;;;2.27;;
18322;SDS011;9287;49.456;11.064;2023-02-03T04:34:33;2.70;;;2.50;;
18322;SDS011;9287;49.456;11.064;2023-02-03T04:37:02;5.00;;;2.37;;
18322;SDS011;9287;49.456;11.064;2023-02-03T04:39:30;2.80;;;2.57;;
18322;SDS011;9287;49.456;11.064;2023-02-03T04:41:57;2.40;;;2.20;;
18322;SDS011;9287;49.456;11.064;2023-02-03T04:44:27;2.53;;;2.10;;
18322;SDS011;9287;49.456;11.064;2023-02-03T04:46:54;4.13;;;2.67;;
18322;SDS011;9287;49.456;11.064;2023-02-03T04:49:22;3.73;;;2.50;;
18322;SDS011;9287;49.456;11.064;2023-02-03T04:51:50;3.67;;;2.50;;
18322;SDS011;9287;49.456;11.064;2023-02-03T04:54:19;2.87;;;2.67;;
18322;SDS011;9287;49.456;11.064;2023-02-03T04:56:47;2.60;;;2.20;;
18322;SDS011;9287;49.456;11.064;2023-02-03T04:59:14;4.47;;;2.50;;
18322;SDS011;9287;49.456;11.064;2023-02-03T05:01:42;3.33;;;2.03;;
18322;SDS011;9287;49.456;11.064;2023-02-03T05:04:09;5.50;;;2.50;;
18322;SDS011;9287;49.456;11.064;2023-02-03T05:06:37;6.03;;;2.53;;
18322;SDS011;9287;49.456;11.064;2023-02-03T05:09:05;3.87;;;1.90;;
18322;SDS011;9287;49.456;11.064;2023-02-03T05:11:34;2.60;;;1.90;;
18322;SDS011;9287;49.456;11.064;2023-02-03T05:14:02;3.47;;;2.40;;
18322;SDS011;9287;49.456;11.064;2023-02-03T05:16:30;3.83;;;1.87;;
18322;SDS011;9287;49.456;11.064;2023-02-03T05:18:58;2.57;;;2.37;;
18322;SDS011;9287;49.456;11.064;2023-02-03T05:21:26;2.87;;;2.00;;
18322;SDS011;9287;49.456;11.064;2023-02-03T05:23:53;3.00;;;1.40;;
18322;SDS011;9287;49.456;11.064;2023-02-03T05:26:21;1.77;;;1.63;;
18322;SDS011;9287;49.456;11.064;2023-02-03T05:28:50;5.20;;;1.70;;
18322;SDS011;9287;49.456;11.064;2023-02-03T05:31:20;1.90;;;1.43;;
18322;SDS011;9287;49.456;11.064;2023-02-03T05:33:48;3.10;;;1.50;;
18322;SDS011;9287;49.456;11.064;2023-02-03T05:36:15;2.60;;;1.27;;
18322;SDS011;9287;49.456;11.064;2023-02-03T05:38:43;2.10;;;1.20;;
18322;SDS011;9287;49.456;11.064;2023-02-03T05:41:11;1.70;;;1.10;;
18322;SDS011;9287;49.456;11.064;2023-02-03T05:43:58;1.77;;;1.20;;
18322;SDS011;9287;49.456;11.064;2023-02-03T05:46:26;2.00;;;1.30;;
18322;SDS011;9287;49.456;11.064;2023-02-03T05:48:53;1.30;;;1.17;;
18322;SDS011;9287;49.456;11.064;2023-02-03T05:51:21;1.10;;;1.00;;
18322;SDS011;9287;49.456;11.064;2023-02-03T05:53:50;1.37;;;1.27;;
18322;SDS011;9287;49.456;11.064;2023-02-03T05:56:19;1.27;;;1.17;;
18322;SDS011;9287;49.456;11.064;2023-02-03T05:58:46;1.37;;;1.07;;
18322;SDS011;9287;49.456;11.064;2023-02-03T06:01:18;2.40;;;1.10;;
18322;SDS011;9287;49.456;11.064;2023-02-03T06:03:45;1.40;;;1.07;;
18322;SDS011;9287;49.456;11.064;2023-02-03T06:06:14;1.83;;;1.50;;
18322;SDS011;9287;49.456;11.064;2023-02-03T06:08:42;2.47;;;1.17;;
18322;SDS011;9287;49.456;11.064;2023-02-03T06:11:10;2.07;;;1.20;;
18322;SDS011;9287;49.456;11.064;2023-02-03T06:13:38;1.87;;;1.30;;
18322;SDS011;9287;49.456;11.064;2023-02-03T06:16:06;1.40;;;1.20;;
18322;SDS011;9287;49.456;11.064;2023-02-03T06:18:35;1.20;;;1.10;;
18322;SDS011;9287;49.456;11.064;2023-02-03T06:21:03;0.80;;;0.80;;
18322;SDS011;9287;49.456;11.064;2023-02-03T06:23:31;2.53;;;1.20;;
18322;SDS011;9287;49.456;11.064;2023-02-03T06:25:59;3.33;;;0.97;;
18322;SDS011;9287;49.456;11.064;2023-02-03T06:28:27;1.07;;;0.90;;
18322;SDS011;9287;49.456;11.064;2023-02-03T06:30:55;0.80;;;0.80;;
18322;SDS011;9287;49.456;11.064;2023-02-03T06:33:23;1.97;;;1.00;;
18322;SDS011;9287;49.456;11.064;2023-02-03T06:35:52;1.63;;;0.80;;
18322;SDS011;9287;49.456;11.064;2023-02-03T06:38:20;1.67;;;0.80;;
18322;SDS011;9287;49.456;11.064;2023-02-03T06:40:47;0.97;;;0.87;;
18322;SDS011;9287;49.456;11.064;2023-02-03T06:43:15;1.40;;;0.90;;
18322;SDS011;9287;49.456;11.064;2023-02-03T06:45:44;1.47;;;0.90;;
18322;SDS011;9287;49.456;11.064;2023-02-03T06:48:12;0.97;;;0.70;;
18322;SDS011;9287;49.456;11.064;2023-02-03T06:50:40;1.00;;;0.90;;
18322;SDS011;9287;49.456;11.064;2023-02-03T06:53:10;0.80;;;0.80;;
18322;SDS011;9287;49.456;11.064;2023-02-03T06:55:38;0.80;;;0.80;;
18322;SDS011;9287;49.456;11.064;2023-02-03T06:58:06;0.93;;;0.87;;
18322;SDS011;9287;49.456;11.064;2023-02-03T07:00:33;0.73;;;0.73;;
18322;SDS011;9287;49.456;11.064;2023-02-03T07:03:01;2.20;;;1.00;;
18322;SDS011;9287;49.456;11.064;2023-02-03T07:05:30;0.70;;;0.70;;
18322;SDS011;9287;49.456;11.064;2023-02-03T07:07:57;1.13;;;0.97;;
18322;SDS011;9287;49.456;11.064;2023-02-03T07:10:27;0.97;;;0.97;;
18322;SDS011;9287;49.456;11.064;2023-02-03T07:12:55;0.70;;;0.70;;
18322;SDS011;9287;49.456;11.064;2023-02-03T07:15:28;0.70;;;0.70;;
18322;SDS011;9287;49.456;11.064;2023-02-03T07:17:56;1.10;;;0.80;;
18322;SDS011;9287;49.456;11.064;2023-02-03T07:20:24;1.03;;;0.90;;
18322;SDS011;9287;49.456;11.064;2023-02-03T07:22:54;0.80;;;0.70;;
18322;SDS011;9287;49.456;11.064;2023-02-03T07:25:23;0.97;;;0.63;;
18322;SDS011;9287;49.456;11.064;2023-02-03T07:27:53;0.87;;;0.70;;
18322;SDS011;9287;49.456;11.064;2023-02-03T07:30:21;3.90;;;0.80;;
18322;SDS011;9287;49.456;11.064;2023-02-03T07:32:49;0.77;;;0.77;;
18322;SDS011;9287;49.456;11.064;2023-02-03T07:35:18;1.83;;;0.90;;
18322;SDS011;9287;49.456;11.064;2023-02-03T07:37:46;1.13;;;0.80;;
18322;SDS011;9287;49.456;11.064;2023-02-03T07:40:14;0.77;;;0.77;;
18322;SDS011;9287;49.456;11.064;2023-02-03T07:42:42;1.50;;;0.90;;
18322;SDS011;9287;49.456;11.064;2023-02-03T07:45:11;1.67;;;0.90;;
18322;SDS011;9287;49.456;11.064;2023-02-03T07:47:40;1.57;;;0.90;;
18322;SDS011;9287;49.456;11.064;2023-02-03T07:50:09;1.17;;;0.80;;
18322;SDS011;9287;49.456;11.064;2023-02-03T07:52:38;1.33;;;1.23;;
18322;SDS011;9287;49.456;11.064;2023-02-03T07:55:06;1.43;;;1.10;;
18322;SDS011;9287;49.456;11.064;2023-02-03T07:57:34;1.03;;;1.00;;
18322;SDS011;9287;49.456;11.064;2023-02-03T08:00:03;2.07;;;1.13;;
18322;SDS011;9287;49.456;11.064;2023-02-03T08:02:33;1.20;;;0.90;;
18322;SDS011;9287;49.456;11.064;2023-02-03T08:05:01;1.90;;;1.00;;
18322;SDS011;9287;49.456;11.064;2023-02-03T08:07:28;1.83;;;0.83;;
18322;SDS011;9287;49.456;11.064;2023-02-03T08:09:56;1.40;;;0.87;;
18322;SDS011;9287;49.456;11.064;2023-02-03T08:12:24;1.13;;;0.90;;
18322;SDS011;9287;49.456;11.064;2023-02-03T08:14:51;1.33;;;0.90;;
18322;SDS011;9287;49.456;11.064;2023-02-03T08:17:19;1.83;;;0.97;;
18322;SDS011;9287;49.456;11.064;2023-02-03T08:19:48;1.63;;;0.93;;
18322;SDS011;9287;49.456;11.064;2023-02-03T08:22:16;1.47;;;0.90;;
18322;SDS011;9287;49.456;11.064;2023-02-03T08:24:44;1.23;;;0.90;;
18322;SDS011;9287;49.456;11.064;2023-02-03T08:27:15;1.10;;;0.90;;
18322;SDS011;9287;49.456;11.064;2023-02-03T08:29:44;1.13;;;0.83;;
18322;SDS011;9287;49.456;11.064;2023-02-03T08:32:13;1.73;;;0.93;;
18322;SDS011;9287;49.456;11.064;2023-02-03T08:34:42;1.50;;;1.00;;
18322;SDS011;9287;49.456;11.064;2023-02-03T08:37:12;1.13;;;1.03;;
18322;SDS011;9287;49.456;11.064;2023-02-03T08:39:40;1.03;;;0.77;;
18322;SDS011;9287;49.456;11.064;2023-02-03T08:42:08;1.30;;;0.70;;
18322;SDS011;9287;49.456;11.064;2023-02-03T08:44:37;1.13;;;0.77;;
18322;SDS011;9287;49.456;11.064;2023-02-03T08:47:05;1.30;;;0.80;;
18322;SDS011;9287;49.456;11.064;2023-02-03T08:49:33;0.97;;;0.97;;
18322;SDS011;9287;49.456;11.064;2023-02-03T08:52:04;1.83;;;0.87;;
18322;SDS011;9287;49.456;11.064;2023-02-03T08:54:34;2.30;;;1.07;;
18322;SDS011;9287;49.456;11.064;2023-02-03T08:57:02;0.90;;;0.87;;
18322;SDS011;9287;49.456;11.064;2023-02-03T08:59:30;0.80;;;0.80;;
18322;SDS011;9287;49.456;11.064;2023-02-03T09:02:01;0.83;;;0.83;;
18322;SDS011;9287;49.456;11.064;2023-02-03T09:04:29;1.00;;;0.90;;
18322;SDS011;9287;49.456;11.064;2023-02-03T09:06:59;0.80;;;0.80;;
18322;SDS011;9287;49.456;11.064;2023-02-03T09:09:29;1.80;;;0.97;;
18322;SDS011;9287;49.456;11.064;2023-02-03T09:11:59;1.00;;;0.80;;
18322;SDS011;9287;49.456;11.064;2023-02-03T09:14:30;1.43;;;0.87;;
18322;SDS011;9287;49.456;11.064;2023-02-03T09:16:59;1.87;;;0.70;;
18322;SDS011;9287;49.456;11.064;2023-02-03T09:19:28;0.70;;;0.70;;
18322;SDS011;9287;49.456;11.064;2023-02-03T09:21:56;0.70;;;0.70;;
18322;SDS011;9287;49.456;11.064;2023-02-03T09:24:24;1.10;;;0.80;;
18322;SDS011;9287;49.456;11.064;2023-02-03T09:26:52;0.73;;;0.60;;
18322;SDS011;9287;49.456;11.064;2023-02-03T09:29:21;0.73;;;0.73;;
18322;SDS011;9287;49.456;11.064;2023-02-03T09:31:49;1.30;;;0.60;;
18322;SDS011;9287;49.456;11.064;2023-02-03T09:34:18;0.93;;;0.70;;
18322;SDS011;9287;49.456;11.064;2023-02-03T09:36:47;1.70;;;0.70;;
18322;SDS011;9287;49.456;11.064;2023-02-03T09:39:15;0.83;;;0.77;;
18322;SDS011;9287;49.456;11.064;2023-02-03T09:44:49;1.10;;;1.00;;
18322;SDS011;9287;49.456;11.064;2023-02-03T09:47:26;0.83;;;0.80;;
18322;SDS011;9287;49.456;11.064;2023-02-03T09:49:56;1.00;;;0.80;;
18322;SDS011;9287;49.456;11.064;2023-02-03T09:52:27;0.97;;;0.80;;
18322;SDS011;9287;49.456;11.064;2023-02-03T09:54:57;1.13;;;1.00;;
18322;SDS011;9287;49.456;11.064;2023-02-03T09:57:31;1.20;;;1.00;;
18322;SDS011;9287;49.456;11.064;2023-02-03T10:00:12;2.10;;;0.97;;
18322;SDS011;9287;49.456;11.064;2023-02-03T10:02:48;1.27;;;0.87;;
18322;SDS011;9287;49.456;11.064;2023-02-03T10:05:24;2.07;;;1.10;;
18322;SDS011;9287;49.456;11.064;2023-02-03T10:08:01;1.20;;;1.00;;
18322;SDS011;9287;49.456;11.064;2023-02-03T10:10:39;1.43;;;0.80;;
18322;SDS011;9287;49.456;11.064;2023-02-03T10:13:18;0.87;;;0.80;;
18322;SDS011;9287;49.456;11.064;2023-02-03T10:18:50;1.50;;;0.80;;
18322;SDS011;9287;49.456;11.064;2023-02-03T10:21:22;1.10;;;0.90;;
18322;SDS011;9287;49.456;11.064;2023-02-03T10:24:00;2.00;;;0.90;;
18322;SDS011;9287;49.456;11.064;2023-02-03T10:26:32;1.23;;;0.50;;
18322;SDS011;9287;49.456;11.064;2023-02-03T10:29:01;1.40;;;0.70;;
18322;SDS011;9287;49.456;11.064;2023-02-03T10:31:35;1.37;;;0.80;;
18322;SDS011;9287;49.456;11.064;2023-02-03T10:34:08;1.10;;;0.70;;
18322;SDS011;9287;49.456;11.064;2023-02-03T10:36:44;0.60;;;0.60;;
18322;SDS011;9287;49.456;11.064;2023-02-03T10:39:21;1.10;;;0.80;;
18322;SDS011;9287;49.456;11.064;2023-02-03T10:41:57;0.80;;;0.80;;
18322;SDS011;9287;49.456;11.064;2023-02-03T10:44:28;0.60;;;0.60;;
18322;SDS011;9287;49.456;11.064;2023-02-03T10:47:07;2.83;;;0.80;;
18322;SDS011;9287;49.456;11.064;2023-02-03T10:49:44;1.00;;;0.80;;
18322;SDS011;9287;49.456;11.064;2023-02-03T10:52:23;1.30;;;0.80;;
18322;SDS011;9287;49.456;11.064;2023-02-03T10:54:57;1.10;;;1.00;;
18322;SDS011;9287;49.456;11.064;2023-02-03T10:57:28;1.10;;;0.90;;
18322;SDS011;9287;49.456;11.064;2023-02-03T11:00:04;0.90;;;0.80;;
18322;SDS011;9287;49.456;11.064;2023-02-03T11:02:36;1.10;;;0.90;;
18322;SDS011;9287;49.456;11.064;2023-02-03T11:05:07;0.80;;;0.80;;
18322;SDS011;9287;49.456;11.064;2023-02-03T11:07:46;0.90;;;0.90;;
18322;SDS011;9287;49.456;11.064;2023-02-03T11:10:26;1.50;;;0.70;;
18322;SDS011;9287;49.456;11.064;2023-02-03T11:15:56;2.57;;;0.90;;
18322;SDS011;9287;49.456;11.064;2023-02-03T11:18:32;0.77;;;0.70;;
18322;SDS011;9287;49.456;11.064;2023-02-03T11:21:10;2.27;;;0.73;;
18322;SDS011;9287;49.456;11.064;2023-02-03T11:23:43;0.83;;;0.73;;
18322;SDS011;9287;49.456;11.064;2023-02-03T11:26:17;5.00;;;1.00;;
18322;SDS011;9287;49.456;11.064;2023-02-03T11:28:48;1.10;;;0.90;;
18322;SDS011;9287;49.456;11.064;2023-02-03T11:31:19;1.20;;;0.97;;
18322;SDS011;9287;49.456;11.064;2023-02-03T11:33:51;2.23;;;0.73;;
18322;SDS011;9287;49.456;11.064;2023-02-03T11:36:24;2.70;;;1.00;;
18322;SDS011;9287;49.456;11.064;2023-02-03T11:39:07;0.90;;;0.80;;
18322;SDS011;9287;49.456;11.064;2023-02-03T11:41:37;3.53;;;0.87;;
18322;SDS011;9287;49.456;11.064;2023-02-03T11:44:09;1.00;;;0.80;;
18322;SDS011;9287;49.456;11.064;2023-02-03T11:46:39;4.37;;;0.70;;
18322;SDS011;9287;49.456;11.064;2023-02-03T11:49:11;1.93;;;1.27;;
18322;SDS011;9287;49.456;11.064;2023-02-03T11:51:55;1.17;;;0.80;;
18322;SDS011;9287;49.456;11.064;2023-02-03T11:54:33;0.97;;;0.80;;
18322;SDS011;9287;49.456;11.064;2023-02-03T11:57:20;1.70;;;0.60;;
18322;SDS011;9287;49.456;11.064;2023-02-03T12:00:02;1.13;;;0.77;;
18322;SDS011;9287;49.456;11.064;2023-02-03T12:02:43;0.87;;;0.73;;
18322;SDS011;9287;49.456;11.064;2023-02-03T12:05:31;1.80;;;0.80;;
18322;SDS011;9287;49.456;11.064;2023-02-03T12:08:19;1.00;;;0.70;;
18322;SDS011;9287;49.456;11.064;2023-02-03T12:10:56;2.40;;;0.87;;
18322;SDS011;9287;49.456;11.064;2023-02-03T12:13:39;0.80;;;0.80;;
18322;SDS011;9287;49.456;11.064;2023-02-03T12:16:26;2.10;;;0.70;;
18322;SDS011;9287;49.456;11.064;2023-02-03T12:19:16;1.27;;;0.60;;
18322;SDS011;9287;49.456;11.064;2023-02-03T12:21:55;0.90;;;0.60;;
18322;SDS011;9287;49.456;11.064;2023-02-03T12:24:33;1.73;;;0.60;;
18322;SDS011;9287;49.456;11.064;2023-02-03T12:27:15;0.77;;;0.77;;
18322;SDS011;9287;49.456;11.064;2023-02-03T12:29:53;1.73;;;0.90;;
18322;SDS011;9287;49.456;11.064;2023-02-03T12:32:25;1.50;;;0.97;;
18322;SDS011;9287;49.456;11.064;2023-02-03T12:35:02;1.33;;;0.80;;
18322;SDS011;9287;49.456;11.064;2023-02-03T12:37:42;1.40;;;0.60;;
18322;SDS011;9287;49.456;11.064;2023-02-03T12:40:17;0.90;;;0.60;;
18322;SDS011;9287;49.456;11.064;2023-02-03T12:42:50;0.77;;;0.60;;
18322;SDS011;9287;49.456;11.064;2023-02-03T12:45:23;0.53;;;0.50;;
18322;SDS011;9287;49.456;11.064;2023-02-03T12:47:54;0.50;;;0.50;;
18322;SDS011;9287;49.456;11.064;2023-02-03T12:50:26;1.10;;;0.57;;
18322;SDS011;9287;49.456;11.064;2023-02-03T12:53:00;1.03;;;0.50;;
18322;SDS011;9287;49.456;11.064;2023-02-03T12:55:33;1.37;;;0.50;;
18322;SDS011;9287;49.456;11.064;2023-02-03T12:58:04;1.60;;;0.50;;
18322;SDS011;9287;49.456;11.064;2023-02-03T13:00:35;0.50;;;0.50;;
18322;SDS011;9287;49.456;11.064;2023-02-03T13:03:12;0.50;;;0.50;;
18322;SDS011;9287;49.456;11.064;2023-02-03T13:05:47;1.70;;;0.73;;
18322;SDS011;9287;49.456;11.064;2023-02-03T13:08:24;0.70;;;0.70;;
18322;SDS011;9287;49.456;11.064;2023-02-03T13:10:58;0.57;;;0.53;;
18322;SDS011;9287;49.456;11.064;2023-02-03T13:13:37;0.63;;;0.60;;
18322;SDS011;9287;49.456;11.064;2023-02-03T13:16:08;1.27;;;0.50;;
18322;SDS011;9287;49.456;11.064;2023-02-03T13:18:40;0.50;;;0.50;;
18322;SDS011;9287;49.456;11.064;2023-02-03T13:21:12;1.27;;;0.43;;
18322;SDS011;9287;49.456;11.064;2023-02-03T13:23:41;1.50;;;0.50;;
18322;SDS011;9287;49.456;11.064;2023-02-03T13:26:31;0.47;;;0.47;;
18322;SDS011;9287;49.456;11.064;2023-02-03T13:29:24;2.10;;;0.50;;
18322;SDS011;9287;49.456;11.064;2023-02-03T13:32:12;0.33;;;0.33;;
18322;SDS011;9287;49.456;11.064;2023-02-03T13:34:53;0.83;;;0.40;;
18322;SDS011;9287;49.456;11.064;2023-02-03T13:37:56;0.40;;;0.40;;
18322;SDS011;9287;49.456;11.064;2023-02-03T13:40:40;0.40;;;0.40;;
18322;SDS011;9287;49.456;11.064;2023-02-03T13:43:18;0.70;;;0.50;;
18322;SDS011;9287;49.456;11.064;2023-02-03T13:46:04;1.37;;;0.50;;
18322;SDS011;9287;49.456;11.064;2023-02-03T13:48:34;0.50;;;0.47;;
18322;SDS011;9287;49.456;11.064;2023-02-03T13:51:04;1.60;;;0.60;;
18322;SDS011;9287;49.456;11.064;2023-02-03T13:53:35;1.37;;;0.50;;
18322;SDS011;9287;49.456;11.064;2023-02-03T13:56:08;0.53;;;0.53;;
18322;SDS011;9287;49.456;11.064;2023-02-03T13:58:57;0.43;;;0.43;;
18322;SDS011;9287;49.456;11.064;2023-02-03T14:01:31;0.50;;;0.50;;
18322;SDS011;9287;49.456;11.064;2023-02-03T14:04:01;0.50;;;0.50;;
18322;SDS011;9287;49.456;11.064;2023-02-03T14:09:36;0.73;;;0.50;;
18322;SDS011;9287;49.456;11.064;2023-02-03T14:15:31;0.50;;;0.50;;
18322;SDS011;9287;49.456;11.064;2023-02-03T14:18:04;3.60;;;0.77;;
18322;SDS011;9287;49.456;11.064;2023-02-03T14:20:51;0.60;;;0.50;;
18322;SDS011;9287;49.456;11.064;2023-02-03T14:23:27;0.50;;;0.50;;
18322;SDS011;9287;49.456;11.064;2023-02-03T14:26:04;0.40;;;0.40;;
18322;SDS011;9287;49.456;11.064;2023-02-03T14:28:36;0.50;;;0.50;;
18322;SDS011;9287;49.456;11.064;2023-02-03T14:31:13;0.70;;;0.50;;
18322;SDS011;9287;49.456;11.064;2023-02-03T14:33:52;0.70;;;0.50;;
18322;SDS011;9287;49.456;11.064;2023-02-03T14:36:40;0.50;;;0.50;;
18322;SDS011;9287;49.456;11.064;2023-02-03T14:42:52;0.50;;;0.40;;
18322;SDS011;9287;49.456;11.064;2023-02-03T14:45:46;0.80;;;0.50;;
18322;SDS011;9287;49.456;11.064;2023-02-03T14:51:34;0.30;;;0.30;;
18322;SDS011;9287;49.456;11.064;2023-02-03T14:54:14;0.47;;;0.47;;
18322;SDS011;9287;49.456;11.064;2023-02-03T14:57:08;0.43;;;0.43;;
18322;SDS011;9287;49.456;11.064;2023-02-03T14:59:49;1.33;;;0.60;;
18322;SDS011;9287;49.456;11.064;2023-02-03T15:02:23;0.40;;;0.40;;
18322;SDS011;9287;49.456;11.064;2023-02-03T15:05:33;0.60;;;0.60;;
18322;SDS011;9287;49.456;11.064;2023-02-03T15:14:16;0.40;;;0.37;;
18322;SDS011;9287;49.456;11.064;2023-02-03T15:16:47;0.47;;;0.47;;
18322;SDS011;9287;49.456;11.064;2023-02-03T15:19:21;0.40;;;0.40;;
18322;SDS011;9287;49.456;11.064;2023-02-03T15:21:52;0.40;;;0.40;;
18322;SDS011;9287;49.456;11.064;2023-02-03T15:24:20;0.40;;;0.40;;
18322;SDS011;9287;49.456;11.064;2023-02-03T15:26:50;0.43;;;0.40;;
18322;SDS011;9287;49.456;11.064;2023-02-03T15:29:29;0.87;;;0.43;;
18322;SDS011;9287;49.456;11.064;2023-02-03T15:31:59;0.40;;;0.40;;
18322;SDS011;9287;49.456;11.064;2023-02-03T15:34:32;0.43;;;0.43;;
18322;SDS011;9287;49.456;11.064;2023-02-03T15:37:04;1.80;;;0.40;;
18322;SDS011;9287;49.456;11.064;2023-02-03T15:39:37;0.57;;;0.43;;
18322;SDS011;9287;49.456;11.064;2023-02-03T15:42:13;0.40;;;0.40;;
18322;SDS011;9287;49.456;11.064;2023-02-03T15:44:49;0.40;;;0.40;;
18322;SDS011;9287;49.456;11.064;2023-02-03T15:47:26;0.90;;;0.50;;
18322;SDS011;9287;49.456;11.064;2023-02-03T15:49:59;0.37;;;0.30;;